Time;durP1;ratioP1;P1;durP2;ratioP2;P2;SDS_P1;SDS_P2;PMS_P1;PMS_P2;Temp;Humidity;BMP_temperature;BMP_pressure;BME280_temperature;BME280_humidity;BME280_pressure;Samples;Min_cycle;Max_cycle;Signal;HPM_P1;HPM_P2
2021/07/11 00:00:53;;;;;;;18.30;7.40;;;;;;;18.78;97.11;100799.14;1744235;81;21195;-39
2021/07/11 00:03:19;;;;;;;18.20;7.17;;;;;;;18.78;97.12;100799.14;1709626;82;20956;-40
2021/07/11 00:05:45;;;;;;;9.78;6.83;;;;;;;18.79;97.09;100798.66;1737983;81;20906;-39
2021/07/11 00:08:13;;;;;;;14.93;7.45;;;;;;;18.76;97.08;100800.98;1739038;81;21427;-40
2021/07/11 00:10:41;;;;;;;12.10;7.15;;;;;;;18.78;97.07;100803.08;1733720;82;21020;-40
2021/07/11 00:13:07;;;;;;;15.00;6.95;;;;;;;18.79;97.08;100798.22;1738254;81;21119;-40
2021/07/11 00:15:34;;;;;;;15.72;7.25;;;;;;;18.80;97.02;100799.92;1732818;81;20981;-40
2021/07/11 00:18:03;;;;;;;9.78;7.10;;;;;;;18.80;97.11;100795.12;1740366;82;21007;-39
2021/07/11 00:20:29;;;;;;;12.15;6.75;;;;;;;18.81;97.26;100796.81;1741649;81;21007;-40
2021/07/11 00:22:56;;;;;;;8.20;7.20;;;;;;;18.82;97.49;100791.99;1738418;81;20971;-39
2021/07/11 00:25:23;;;;;;;19.07;7.30;;;;;;;18.83;97.74;100795.00;1738815;81;21128;-40
2021/07/11 00:27:50;;;;;;;10.53;7.17;;;;;;;18.84;97.87;100789.28;1713567;83;20948;-39
2021/07/11 00:30:19;;;;;;;11.28;6.90;;;;;;;18.83;97.94;100795.00;1758245;81;21019;-40
2021/07/11 00:32:46;;;;;;;13.90;7.45;;;;;;;18.81;98.02;100793.75;1753705;81;20972;-40
2021/07/11 00:35:12;;;;;;;14.98;7.50;;;;;;;18.80;98.13;100788.56;1749214;81;20964;-39
2021/07/11 00:37:39;;;;;;;10.43;6.60;;;;;;;18.78;98.09;100786.48;1757608;81;21111;-39
2021/07/11 00:40:07;;;;;;;15.00;7.90;;;;;;;18.77;98.28;100780.84;1736960;81;20976;-39
2021/07/11 00:42:33;;;;;;;21.77;8.28;;;;;;;18.80;98.48;100778.08;1748848;81;20987;-39
2021/07/11 00:45:04;;;;;;;21.52;7.30;;;;;;;18.78;98.44;100774.68;1705139;83;20999;-39
2021/07/11 00:47:37;;;;;;;22.98;7.08;;;;;;;18.76;98.34;100775.22;1751696;81;21538;-39
2021/07/11 00:50:09;;;;;;;11.00;6.50;;;;;;;18.74;98.15;100774.44;1739727;81;21296;-40
2021/07/11 00:52:38;;;;;;;15.75;7.10;;;;;;;18.69;97.80;100770.72;1732604;81;21471;-40
2021/07/11 00:55:09;;;;;;;16.97;7.75;;;;;;;18.66;97.61;100771.73;1743569;81;20976;-39
2021/07/11 00:57:37;;;;;;;18.40;8.30;;;;;;;18.64;97.29;100770.95;1727375;81;20999;-40
2021/07/11 01:00:09;;;;;;;8.85;7.50;;;;;;;18.64;97.31;100771.41;1738748;80;21509;-39
2021/07/11 01:03:13;;;;;;;12.95;7.25;;;;;;;18.63;97.43;100777.13;1751403;80;21153;-40
2021/07/11 01:05:42;;;;;;;36.25;8.38;;;;;;;18.61;97.40;100772.87;1746594;80;21587;-40
2021/07/11 01:08:27;;;;;;;12.18;8.73;;;;;;;18.58;97.69;100771.26;1719038;82;20966;-40
2021/07/11 01:11:02;;;;;;;13.25;7.30;;;;;;;18.58;97.93;100773.88;1742737;80;21002;-40
2021/07/11 01:13:30;;;;;;;20.70;7.75;;;;;;;18.61;98.36;100772.87;1748615;80;21541;-40
2021/07/11 01:16:01;;;;;;;17.80;8.15;;;;;;;18.62;98.61;100771.50;1717749;80;21805;-40
2021/07/11 01:18:28;;;;;;;18.55;8.43;;;;;;;18.63;98.83;100777.57;1745077;80;21010;-39
2021/07/11 01:21:01;;;;;;;11.25;7.75;;;;;;;18.62;98.95;100776.73;1752812;80;20936;-41
2021/07/11 01:23:51;;;;;;;14.78;7.85;;;;;;;18.60;99.08;100772.48;1695278;80;21004;-41
2021/07/11 01:26:18;;;;;;;19.07;8.05;;;;;;;18.59;99.17;100774.71;1752924;80;21513;-39
2021/07/11 01:28:48;;;;;;;11.88;7.85;;;;;;;18.60;99.50;100775.09;1737088;80;21778;-40
2021/07/11 01:31:16;;;;;;;16.82;7.85;;;;;;;18.59;99.42;100776.89;1717222;80;20976;-40
2021/07/11 01:33:45;;;;;;;18.30;7.85;;;;;;;18.56;99.35;100776.17;1710405;80;21806;-40
2021/07/11 01:36:12;;;;;;;24.10;8.55;;;;;;;18.53;99.44;100781.08;1746120;80;21006;-40
2021/07/11 01:38:41;;;;;;;16.73;8.20;;;;;;;18.50;99.56;100783.85;1755903;80;20972;-40
2021/07/11 01:41:11;;;;;;;19.80;8.98;;;;;;;18.48;99.69;100785.70;1752217;80;21015;-40
2021/07/11 01:43:37;;;;;;;13.83;8.03;;;;;;;18.45;99.84;100784.09;1744765;80;21038;-40
2021/07/11 01:46:06;;;;;;;18.10;8.53;;;;;;;18.41;99.75;100776.42;1752109;80;21478;-41
2021/07/11 01:48:32;;;;;;;22.30;8.23;;;;;;;18.36;99.74;100773.56;1754864;80;21443;-41
2021/07/11 01:51:02;;;;;;;21.07;7.90;;;;;;;18.35;100.00;100776.23;1745241;80;21051;-41
2021/07/11 01:53:37;;;;;;;23.92;8.63;;;;;;;18.35;100.00;100778.86;1764344;80;21112;-41
2021/07/11 01:56:05;;;;;;;29.53;8.50;;;;;;;18.34;100.00;100777.16;1749067;80;20951;-39
2021/07/11 01:58:32;;;;;;;12.70;8.48;;;;;;;18.31;100.00;100776.00;1738235;80;20939;-39
2021/07/11 02:00:59;;;;;;;36.88;9.33;;;;;;;18.27;100.00;100777.06;1756821;80;20984;-39
2021/07/11 02:03:27;;;;;;;20.15;8.30;;;;;;;18.23;100.00;100772.41;1745939;81;20968;-39
2021/07/11 02:06:02;;;;;;;16.87;8.53;;;;;;;18.23;100.00;100774.59;1744269;81;21804;-40
2021/07/11 02:08:31;;;;;;;16.95;7.83;;;;;;;18.27;100.00;100773.97;1741626;81;21474;-39
2021/07/11 02:10:59;;;;;;;17.45;8.20;;;;;;;18.30;100.00;100770.38;1734919;81;21030;-39
2021/07/11 02:13:48;;;;;;;21.12;9.08;;;;;;;18.32;100.00;100768.08;1754960;81;20964;-39
2021/07/11 02:16:36;;;;;;;19.48;9.30;;;;;;;18.32;100.00;100772.45;1754448;81;20912;-40
2021/07/11 02:19:05;;;;;;;20.25;9.20;;;;;;;18.31;100.00;100773.38;1749606;81;20985;-40
2021/07/11 02:21:35;;;;;;;20.52;8.25;;;;;;;18.28;100.00;100774.36;1725636;82;20909;-40
2021/07/11 02:24:04;;;;;;;31.62;9.18;;;;;;;18.27;100.00;100772.66;1740559;81;21455;-40
2021/07/11 02:26:32;;;;;;;46.02;9.70;;;;;;;18.29;100.00;100773.44;1659427;83;20997;-40
2021/07/11 02:28:59;;;;;;;32.85;9.25;;;;;;;18.34;100.00;100771.92;1678664;83;22029;-40
2021/07/11 02:31:27;;;;;;;25.48;9.60;;;;;;;18.37;100.00;100774.40;1674499;84;21088;-40
2021/07/11 02:33:54;;;;;;;37.55;9.08;;;;;;;18.37;100.00;100779.64;1687787;84;21032;-41
2021/07/11 02:36:26;;;;;;;36.40;9.90;;;;;;;18.37;100.00;100773.95;1686803;84;21527;-40
2021/07/11 02:39:06;;;;;;;39.23;10.65;;;;;;;18.39;100.00;100773.86;1663818;84;22278;-40
2021/07/11 02:41:37;;;;;;;44.13;11.05;;;;;;;18.49;100.00;100779.53;1674828;84;20993;-40
2021/07/11 02:44:10;;;;;;;61.45;11.57;;;;;;;18.57;100.00;100766.94;1754894;81;21142;-40
2021/07/11 02:46:42;;;;;;;64.75;12.00;;;;;;;18.66;100.00;100770.88;1737014;81;21484;-40
2021/07/11 02:49:13;;;;;;;49.13;10.70;;;;;;;18.72;100.00;100778.47;1712707;83;20979;-40
2021/07/11 02:51:46;;;;;;;54.13;9.65;;;;;;;18.81;100.00;100778.02;1726198;81;21012;-40
2021/07/11 02:54:16;;;;;;;53.23;9.68;;;;;;;18.90;100.00;100779.34;1710014;81;21093;-39
2021/07/11 02:56:44;;;;;;;56.58;10.68;;;;;;;19.00;100.00;100784.17;1733746;81;21034;-40
2021/07/11 02:59:12;;;;;;;42.55;9.83;;;;;;;19.11;100.00;100780.58;1718992;81;21040;-40
2021/07/11 03:01:42;;;;;;;47.98;9.08;;;;;;;19.24;100.00;100780.81;1747908;80;21015;-39
2021/07/11 03:04:12;;;;;;;46.92;9.63;;;;;;;19.35;100.00;100778.97;1729707;80;20952;-39
2021/07/11 03:06:40;;;;;;;39.88;9.15;;;;;;;19.47;100.00;100778.33;1706037;82;21549;-40
2021/07/11 03:09:09;;;;;;;21.45;7.15;;;;;;;19.60;100.00;100781.66;1748780;80;20980;-40
2021/07/11 03:11:40;;;;;;;16.73;6.78;;;;;;;19.70;100.00;100776.76;1747301;80;20908;-40
2021/07/11 03:14:08;;;;;;;16.40;7.00;;;;;;;19.85;98.43;100781.70;1736879;80;21026;-40
2021/07/11 03:16:44;;;;;;;24.72;6.85;;;;;;;19.99;97.24;100774.44;1719779;80;20948;-40
2021/07/11 03:19:10;;;;;;;25.30;6.80;;;;;;;20.12;95.21;100774.63;1743830;80;20967;-40
2021/07/11 03:21:37;;;;;;;31.42;6.72;;;;;;;20.21;92.87;100777.62;1751703;80;21839;-40
2021/07/11 03:24:07;;;;;;;17.90;6.92;;;;;;;20.33;90.59;100777.87;1714893;82;21046;-39
2021/07/11 03:26:35;;;;;;;17.45;6.85;;;;;;;20.43;88.30;100779.53;1682551;82;21573;-40
2021/07/11 03:29:07;;;;;;;23.27;6.72;;;;;;;20.53;87.52;100778.08;1755069;80;21431;-40
2021/07/11 03:31:33;;;;;;;29.32;6.28;;;;;;;20.59;86.75;100765.93;1759383;80;21549;-40
2021/07/11 03:34:00;;;;;;;33.78;7.83;;;;;;;20.65;86.45;100769.52;1748477;80;21757;-40
2021/07/11 03:36:30;;;;;;;44.05;7.75;;;;;;;20.72;85.60;100771.80;1746579;80;20968;-40
2021/07/11 03:39:01;;;;;;;39.40;7.50;;;;;;;20.80;85.29;100776.19;1752846;80;21018;-40
2021/07/11 03:41:31;;;;;;;54.48;8.20;;;;;;;20.89;84.80;100778.77;1742767;80;21054;-41
2021/07/11 03:43:59;;;;;;;39.88;7.42;;;;;;;20.95;83.56;100779.27;1759790;80;20980;-40
2021/07/11 03:46:31;;;;;;;33.40;7.67;;;;;;;21.05;81.63;100778.73;1752986;80;21097;-40
2021/07/11 03:49:05;;;;;;;38.95;7.20;;;;;;;21.19;80.94;100778.80;1734104;82;21545;-40
2021/07/11 03:51:34;;;;;;;36.68;7.42;;;;;;;21.32;79.50;100776.74;1744391;80;20948;-40
2021/07/11 03:54:01;;;;;;;39.88;6.45;;;;;;;21.46;77.82;100767.58;1738463;80;21753;-40
2021/07/11 03:56:30;;;;;;;39.05;7.22;;;;;;;21.60;77.69;100768.52;1750009;80;20901;-41
2021/07/11 03:58:59;;;;;;;35.88;6.47;;;;;;;21.72;76.88;100765.19;1746657;80;21146;-41
2021/07/11 04:01:29;;;;;;;51.55;7.25;;;;;;;21.86;76.30;100764.34;1739635;81;20984;-40
2021/07/11 04:03:55;;;;;;;56.70;7.47;;;;;;;22.02;75.94;100760.30;1732158;81;20977;-41
2021/07/11 04:06:22;;;;;;;28.12;6.67;;;;;;;22.21;75.30;100761.30;1748315;81;21016;-41
2021/07/11 04:08:51;;;;;;;25.10;6.05;;;;;;;22.39;73.97;100760.63;1739882;81;21027;-41
2021/07/11 04:11:18;;;;;;;16.52;6.42;;;;;;;22.64;72.79;100764.83;1728207;81;21081;-40
2021/07/11 04:13:45;;;;;;;20.75;6.10;;;;;;;22.88;71.59;100764.17;1734613;81;21012;-41
2021/07/11 04:16:11;;;;;;;33.88;5.85;;;;;;;23.13;70.55;100766.51;1733529;81;20936;-41
2021/07/11 04:18:45;;;;;;;36.63;6.75;;;;;;;23.40;69.22;100758.56;1741866;81;20976;-41
2021/07/11 04:21:13;;;;;;;12.68;5.83;;;;;;;23.70;68.59;100762.69;1735568;81;20964;-41
2021/07/11 04:23:39;;;;;;;27.13;5.72;;;;;;;24.03;66.94;100756.50;1697689;84;21129;-41
2021/07/11 04:26:06;;;;;;;11.28;4.80;;;;;;;24.30;66.23;100757.64;1720259;82;21507;-41
2021/07/11 04:28:36;;;;;;;10.50;4.90;;;;;;;24.56;64.90;100758.87;1738092;81;20932;-41
2021/07/11 04:31:04;;;;;;;15.10;5.05;;;;;;;24.84;63.37;100753.39;1738495;81;20936;-41
2021/07/11 04:33:31;;;;;;;8.65;5.17;;;;;;;24.98;61.80;100761.12;1737229;81;20976;-41
2021/07/11 04:35:58;;;;;;;10.43;5.20;;;;;;;25.09;62.10;100762.97;1740470;81;21133;-41
2021/07/11 04:38:25;;;;;;;11.15;4.85;;;;;;;25.14;62.30;100762.17;1739797;81;21541;-41
2021/07/11 04:40:52;;;;;;;7.60;4.83;;;;;;;25.18;62.53;100764.95;1738976;81;20960;-42
2021/07/11 04:43:19;;;;;;;8.68;5.00;;;;;;;25.19;62.44;100765.31;1738684;81;21028;-42
2021/07/11 04:45:46;;;;;;;8.25;5.17;;;;;;;25.25;62.75;100766.16;1736339;81;20909;-42
2021/07/11 04:48:13;;;;;;;7.92;4.97;;;;;;;25.38;62.18;100767.86;1740023;81;21221;-39
2021/07/11 04:50:44;;;;;;;6.87;4.83;;;;;;;25.54;60.60;100771.06;1736805;81;20940;-39
2021/07/11 04:53:13;;;;;;;10.03;4.58;;;;;;;25.65;60.77;100768.91;1726003;81;20977;-40
2021/07/11 04:55:41;;;;;;;13.30;4.12;;;;;;;25.76;59.36;100759.27;1747422;81;21558;-39
2021/07/11 04:58:08;;;;;;;8.48;5.05;;;;;;;25.64;58.62;100757.09;1748335;81;21012;-40
2021/07/11 05:00:35;;;;;;;10.40;4.83;;;;;;;25.37;59.39;100756.91;1748354;81;21061;-40
2021/07/11 05:03:01;;;;;;;10.05;5.28;;;;;;;25.20;60.53;100763.48;1748350;81;20956;-40
2021/07/11 05:05:28;;;;;;;9.70;5.45;;;;;;;25.17;59.85;100762.40;1749100;81;20986;-40
2021/07/11 05:07:54;;;;;;;7.33;4.85;;;;;;;25.21;58.77;100762.06;1717754;82;20897;-40
2021/07/11 05:10:21;;;;;;;5.67;4.70;;;;;;;25.31;58.17;100764.00;1751111;81;22115;-40
2021/07/11 05:12:47;;;;;;;15.03;5.10;;;;;;;25.32;58.23;100759.06;1755723;81;21742;-40
2021/07/11 05:16:44;;;;;;;9.63;4.72;;;;;;;25.54;60.35;100759.14;1807126;79;23449;-40
2021/07/11 05:19:13;;;;;;;16.35;4.60;;;;;;;25.80;58.26;100767.36;1768562;80;20913;-41
2021/07/11 05:21:41;;;;;;;5.83;4.53;;;;;;;26.00;58.21;100760.95;1769462;80;21197;-40
2021/07/11 05:24:07;;;;;;;12.00;4.40;;;;;;;26.17;58.55;100766.29;1768624;80;20943;-40
2021/07/11 05:26:34;;;;;;;14.43;4.67;;;;;;;26.49;59.16;100766.33;1770874;80;20985;-40
2021/07/11 05:29:00;;;;;;;12.20;4.85;;;;;;;26.79;58.28;100764.80;1766032;80;21014;-39
2021/07/11 05:31:27;;;;;;;15.30;4.67;;;;;;;27.00;56.58;100767.15;1774040;80;21002;-40
2021/07/11 05:33:53;;;;;;;6.87;4.45;;;;;;;27.15;55.55;100771.16;1761217;80;21144;-39
2021/07/11 05:36:20;;;;;;;4.90;4.50;;;;;;;27.27;56.38;100772.44;1769428;80;21030;-40
2021/07/11 05:38:47;;;;;;;6.40;4.47;;;;;;;27.30;54.00;100772.17;1768675;80;20951;-40
2021/07/11 05:41:13;;;;;;;5.80;4.30;;;;;;;27.16;53.87;100769.36;1775020;80;21015;-41
2021/07/11 05:43:40;;;;;;;11.75;4.85;;;;;;;27.20;55.31;100773.44;1765960;80;20904;-40
2021/07/11 05:46:06;;;;;;;11.48;4.65;;;;;;;27.25;54.62;100772.08;1768839;80;22602;-40
2021/07/11 05:48:33;;;;;;;15.93;5.20;;;;;;;27.33;55.25;100775.89;1764830;80;21453;-40
2021/07/11 05:50:59;;;;;;;6.05;4.50;;;;;;;27.53;53.74;100767.57;1774068;80;20979;-40
2021/07/11 05:53:26;;;;;;;8.68;4.75;;;;;;;27.66;52.40;100762.03;1774372;80;21098;-40
2021/07/11 05:55:53;;;;;;;17.87;4.92;;;;;;;27.49;52.74;100761.66;1774406;80;20995;-40
2021/07/11 05:58:19;;;;;;;26.42;5.85;;;;;;;27.40;52.87;100765.09;1768593;80;21105;-39
2021/07/11 06:00:46;;;;;;;15.03;4.85;;;;;;;27.49;53.78;100755.49;1768240;80;20998;-40
2021/07/11 06:03:12;;;;;;;16.37;5.12;;;;;;;27.59;54.35;100753.78;1773944;80;21422;-39
2021/07/11 06:05:42;;;;;;;22.95;5.05;;;;;;;27.78;53.57;100750.36;1751983;81;20967;-40
2021/07/11 06:08:08;;;;;;;7.05;4.80;;;;;;;28.00;53.05;100738.31;1750543;81;21022;-40
2021/07/11 06:10:35;;;;;;;5.65;4.60;;;;;;;28.28;52.35;100742.06;1752074;81;21145;-40
2021/07/11 06:13:02;;;;;;;8.05;5.20;;;;;;;28.35;50.02;100742.36;1751959;81;20978;-40
2021/07/11 06:15:29;;;;;;;9.63;4.85;;;;;;;28.20;51.68;100740.58;1747087;80;21509;-41
2021/07/11 06:17:56;;;;;;;15.08;4.72;;;;;;;28.37;51.28;100735.90;1735850;82;21020;-41
2021/07/11 06:20:23;;;;;;;6.58;4.72;;;;;;;28.47;50.91;100741.23;1727493;82;20926;-41
2021/07/11 06:22:51;;;;;;;4.75;3.72;;;;;;;28.56;50.50;100742.23;1715346;82;21198;-41
2021/07/11 06:25:17;;;;;;;7.83;4.17;;;;;;;28.59;49.90;100740.61;1731962;82;20936;-41
2021/07/11 06:27:44;;;;;;;9.23;4.65;;;;;;;28.57;50.30;100737.25;1743571;82;20995;-42
2021/07/11 06:30:14;;;;;;;17.30;4.53;;;;;;;28.52;51.63;100738.17;1738071;82;21588;-41
2021/07/11 06:32:42;;;;;;;10.82;4.20;;;;;;;28.59;51.32;100739.28;1738757;82;21513;-42
2021/07/11 06:35:11;;;;;;;16.10;4.90;;;;;;;28.84;49.48;100733.08;1738130;82;21101;-42
2021/07/11 06:37:37;;;;;;;8.13;4.12;;;;;;;29.19;48.28;100734.78;1738429;82;20991;-41
2021/07/11 06:40:05;;;;;;;8.18;4.30;;;;;;;29.53;47.94;100732.47;1738379;82;20981;-41
2021/07/11 06:42:32;;;;;;;9.75;4.33;;;;;;;29.76;45.78;100732.57;1719495;82;21513;-41
2021/07/11 06:44:58;;;;;;;6.83;4.62;;;;;;;29.90;45.67;100732.57;1738934;82;21565;-41
2021/07/11 06:47:26;;;;;;;7.55;4.70;;;;;;;30.01;46.47;100732.86;1738366;82;20992;-41
2021/07/11 06:49:53;;;;;;;13.68;5.10;;;;;;;30.20;44.91;100730.12;1738328;82;20983;-42
2021/07/11 06:52:19;;;;;;;9.10;5.10;;;;;;;30.33;45.40;100732.41;1738487;81;20970;-41
2021/07/11 06:54:48;;;;;;;9.75;4.62;;;;;;;30.11;44.34;100739.86;1736848;82;21481;-41
2021/07/11 06:57:14;;;;;;;16.07;5.08;;;;;;;30.14;46.48;100733.88;1738618;82;21691;-42
2021/07/11 06:59:41;;;;;;;23.75;5.22;;;;;;;30.13;46.03;100733.53;1736549;82;21823;-42
2021/07/11 07:02:07;;;;;;;10.23;4.60;;;;;;;30.19;46.71;100727.58;1734792;82;21524;-43
2021/07/11 07:04:34;;;;;;;11.18;4.40;;;;;;;30.32;46.70;100722.73;1738248;81;20912;-41
2021/07/11 07:07:03;;;;;;;7.80;4.37;;;;;;;30.37;47.95;100732.96;1737207;82;20927;-40
2021/07/11 07:09:30;;;;;;;6.95;4.25;;;;;;;30.56;45.09;100728.44;1738077;82;20980;-40
2021/07/11 07:11:56;;;;;;;15.00;4.50;;;;;;;30.72;44.91;100732.63;1738511;82;21103;-40
2021/07/11 07:14:24;;;;;;;8.88;4.55;;;;;;;30.74;45.33;100728.48;1736244;82;21020;-41
2021/07/11 07:16:50;;;;;;;10.78;4.67;;;;;;;30.75;45.82;100735.50;1719506;82;20940;-41
2021/07/11 07:19:18;;;;;;;12.40;4.25;;;;;;;30.91;43.89;100730.78;1738957;82;20952;-41
2021/07/11 07:21:45;;;;;;;9.15;4.10;;;;;;;31.07;43.95;100734.06;1738682;82;20992;-41
2021/07/11 07:24:12;;;;;;;7.80;4.90;;;;;;;30.96;43.52;100727.14;1735702;82;21196;-44
2021/07/11 07:26:38;;;;;;;12.40;4.65;;;;;;;30.89;42.67;100724.76;1739015;82;21066;-41
2021/07/11 07:29:05;;;;;;;7.20;4.50;;;;;;;30.80;44.75;100728.68;1732032;82;21014;-41
2021/07/11 07:31:32;;;;;;;8.10;4.80;;;;;;;30.82;43.28;100717.86;1694967;83;21020;-41
2021/07/11 07:33:58;;;;;;;12.33;4.78;;;;;;;30.74;45.07;100719.14;1695188;84;21076;-41
2021/07/11 07:36:25;;;;;;;10.13;4.42;;;;;;;30.89;42.47;100726.92;1735564;82;21469;-41
2021/07/11 07:38:51;;;;;;;11.50;4.35;;;;;;;30.80;43.54;100726.52;1739165;82;20976;-41
2021/07/11 07:41:18;;;;;;;5.95;4.90;;;;;;;30.81;44.09;100726.86;1739191;82;20908;-41
2021/07/11 07:43:45;;;;;;;7.53;4.62;;;;;;;30.84;43.56;100727.89;1738857;82;21035;-41
2021/07/11 07:46:12;;;;;;;8.03;4.45;;;;;;;30.96;44.48;100732.00;1737742;82;21057;-42
2021/07/11 07:48:38;;;;;;;8.20;5.10;;;;;;;31.29;43.68;100730.56;1734362;82;21477;-41
2021/07/11 07:51:05;;;;;;;6.92;4.83;;;;;;;31.58;43.20;100723.55;1736989;82;21522;-41
2021/07/11 07:53:31;;;;;;;5.45;4.72;;;;;;;31.78;42.13;100729.50;1717678;82;20935;-41
2021/07/11 07:55:59;;;;;;;8.30;4.50;;;;;;;32.00;40.76;100724.55;1736493;82;21020;-41
2021/07/11 07:58:25;;;;;;;6.87;4.78;;;;;;;32.21;41.33;100721.41;1725719;82;21043;-42
2021/07/11 08:00:52;;;;;;;5.55;4.45;;;;;;;32.21;41.49;100717.89;1732478;82;21085;-41
2021/07/11 08:03:18;;;;;;;6.40;4.45;;;;;;;32.17;40.14;100723.23;1734211;81;21028;-42
2021/07/11 08:05:45;;;;;;;4.40;3.92;;;;;;;31.93;40.64;100712.81;1734142;82;20999;-41
2021/07/11 08:08:11;;;;;;;7.17;4.70;;;;;;;32.11;41.46;100719.40;1734088;82;21029;-41
2021/07/11 08:10:40;;;;;;;11.80;4.62;;;;;;;32.26;39.40;100715.58;1736130;81;20972;-40
2021/07/11 08:13:06;;;;;;;7.95;4.08;;;;;;;32.45;39.19;100712.26;1734367;82;22629;-41
2021/07/11 08:15:33;;;;;;;13.03;4.60;;;;;;;32.71;39.93;100701.87;1715430;82;21067;-41
2021/07/11 08:18:01;;;;;;;13.40;4.60;;;;;;;32.98;39.31;100706.59;1733291;82;21035;-39
2021/07/11 08:20:29;;;;;;;7.00;4.45;;;;;;;33.16;40.07;100715.25;1735676;82;21566;-41
2021/07/11 08:22:58;;;;;;;12.20;4.20;;;;;;;33.30;39.42;100715.56;1729470;82;21497;-41
2021/07/11 08:25:24;;;;;;;13.22;4.65;;;;;;;33.35;39.33;100704.66;1733166;82;21818;-41
2021/07/11 08:27:50;;;;;;;11.55;4.20;;;;;;;33.35;38.81;100705.16;1733637;82;20968;-41
2021/07/11 08:30:18;;;;;;;14.13;5.05;;;;;;;33.23;38.08;100710.05;1710856;82;20983;-40
2021/07/11 08:32:46;;;;;;;16.90;4.35;;;;;;;32.99;38.07;100702.91;1731249;82;21989;-41
2021/07/11 08:35:12;;;;;;;4.10;3.52;;;;;;;32.96;38.62;100700.05;1735615;82;21593;-40
2021/07/11 08:37:39;;;;;;;9.23;4.20;;;;;;;33.04;37.92;100695.19;1735068;82;21133;-41
2021/07/11 08:40:08;;;;;;;8.33;4.28;;;;;;;33.26;37.94;100690.94;1734933;82;20913;-40
2021/07/11 08:42:35;;;;;;;4.22;3.75;;;;;;;33.47;38.75;100693.58;1711293;82;20940;-41
2021/07/11 08:45:04;;;;;;;8.13;4.45;;;;;;;33.67;37.43;100686.78;1737127;82;20900;-40
2021/07/11 08:47:30;;;;;;;9.60;4.70;;;;;;;33.72;37.11;100682.21;1708415;82;20999;-40
2021/07/11 08:49:57;;;;;;;4.92;3.05;;;;;;;33.66;39.49;100687.80;1727266;82;21051;-41
2021/07/11 08:52:23;;;;;;;6.65;3.60;;;;;;;33.74;33.30;100680.22;1730855;82;21331;-40
2021/07/11 08:54:50;;;;;;;20.00;3.25;;;;;;;33.88;32.52;100686.68;1730894;82;21036;-41
2021/07/11 08:57:16;;;;;;;8.80;3.65;;;;;;;33.98;31.15;100679.78;1732156;82;21067;-42
2021/07/11 08:59:43;;;;;;;9.08;3.42;;;;;;;34.00;30.18;100676.90;1730388;82;21716;-42
2021/07/11 09:02:09;;;;;;;20.35;3.72;;;;;;;34.09;31.11;100678.50;1730767;82;21741;-40
2021/07/11 09:04:45;;;;;;;18.17;3.70;;;;;;;34.02;30.15;100674.37;1730376;81;21015;-41
2021/07/11 09:07:19;;;;;;;14.53;3.17;;;;;;;33.76;31.48;100679.53;1730082;82;20972;-42
2021/07/11 09:09:56;;;;;;;16.57;3.50;;;;;;;33.52;31.63;100675.96;1729453;82;20946;-42
2021/07/11 09:12:23;;;;;;;12.00;3.37;;;;;;;33.30;32.00;100672.66;1728954;82;21577;-41
2021/07/11 09:14:51;;;;;;;9.28;3.50;;;;;;;33.08;32.05;100665.69;1728594;82;21074;-41
2021/07/11 09:17:20;;;;;;;10.25;3.40;;;;;;;32.96;32.67;100670.58;1732633;81;21020;-42
2021/07/11 09:19:48;;;;;;;45.30;4.85;;;;;;;32.88;32.02;100672.77;1735331;82;20952;-41
2021/07/11 09:22:17;;;;;;;12.82;3.42;;;;;;;32.74;33.29;100670.24;1736068;82;21038;-40
2021/07/11 09:24:54;;;;;;;5.50;3.00;;;;;;;32.85;32.79;100671.73;1732333;82;20955;-40
2021/07/11 09:27:27;;;;;;;5.90;2.85;;;;;;;33.21;31.81;100664.63;1730800;82;21146;-41
2021/07/11 09:29:59;;;;;;;9.33;3.30;;;;;;;33.49;30.81;100669.61;1730611;82;21095;-41
2021/07/11 09:32:28;;;;;;;102.62;7.22;;;;;;;33.82;31.41;100672.11;1736119;81;21899;-40
2021/07/11 09:34:55;;;;;;;8.95;3.40;;;;;;;34.14;31.31;100665.41;1734053;82;21086;-41
2021/07/11 09:37:22;;;;;;;5.70;3.10;;;;;;;34.46;31.49;100663.95;1729221;82;20967;-41
2021/07/11 09:39:57;;;;;;;7.87;3.20;;;;;;;34.66;28.69;100669.18;1729914;82;21122;-41
2021/07/11 09:42:30;;;;;;;5.37;2.90;;;;;;;34.62;29.70;100668.41;1725283;82;20932;-41
2021/07/11 09:45:01;;;;;;;7.08;3.22;;;;;;;34.73;28.64;100669.30;1729409;82;22198;-41
2021/07/11 09:47:30;;;;;;;4.97;3.30;;;;;;;34.99;29.96;100672.05;1733829;82;20980;-41
2021/07/11 09:50:20;;;;;;;6.30;2.83;;;;;;;35.10;29.71;100668.92;1734838;82;20990;-41
2021/07/11 09:52:50;;;;;;;10.10;3.50;;;;;;;35.21;28.66;100661.42;1731815;81;21900;-40
2021/07/11 09:55:26;;;;;;;5.60;3.60;;;;;;;35.35;28.40;100663.77;1733933;82;21018;-40
2021/07/11 09:58:04;;;;;;;8.25;3.77;;;;;;;35.43;30.50;100664.19;1713130;82;21019;-42
2021/07/11 10:00:37;;;;;;;3.50;3.20;;;;;;;35.58;31.57;100666.34;1716173;82;21064;-41
2021/07/11 10:03:11;;;;;;;12.55;3.67;;;;;;;35.62;29.79;100656.91;1730813;81;20994;-40
2021/07/11 10:05:37;;;;;;;5.58;3.40;;;;;;;35.64;30.96;100664.77;1731406;82;21742;-40
2021/07/11 10:08:04;;;;;;;16.57;3.65;;;;;;;35.86;30.07;100651.34;1735261;82;21040;-41
2021/07/11 10:10:33;;;;;;;7.03;3.42;;;;;;;35.88;30.67;100659.56;1737640;82;21064;-40
2021/07/11 10:13:07;;;;;;;10.78;3.77;;;;;;;35.98;28.54;100651.14;1728464;82;20994;-41
2021/07/11 10:15:37;;;;;;;7.00;3.47;;;;;;;35.76;29.36;100656.53;1729393;82;21156;-42
2021/07/11 10:18:17;;;;;;;76.65;6.37;;;;;;;35.29;29.25;100657.80;1734696;82;21110;-41
2021/07/11 10:20:49;;;;;;;3.92;3.52;;;;;;;34.79;30.96;100656.45;1706616;82;21026;-40
2021/07/11 10:23:37;;;;;;;5.58;3.67;;;;;;;34.71;30.79;100654.36;1733050;81;21054;-40
2021/07/11 10:26:07;;;;;;;8.98;3.83;;;;;;;34.63;31.21;100649.92;1733076;82;21029;-42
2021/07/11 10:28:36;;;;;;;9.35;4.12;;;;;;;34.36;31.95;100652.15;1733732;82;21072;-42
2021/07/11 10:31:04;;;;;;;11.15;5.15;;;;;;;34.28;34.07;100651.70;1732538;82;21797;-40
2021/07/11 10:33:43;;;;;;;13.28;3.85;;;;;;;34.64;34.96;100657.78;1711922;82;21166;-41
2021/07/11 10:36:09;;;;;;;11.43;3.60;;;;;;;35.03;32.59;100649.70;1725143;82;21011;-41
2021/07/11 10:38:54;;;;;;;7.20;3.35;;;;;;;35.20;32.62;100650.34;1709416;82;21130;-40
2021/07/11 10:41:31;;;;;;;7.03;3.30;;;;;;;35.09;30.58;100653.80;1732596;82;21052;-40
2021/07/11 10:44:10;;;;;;;8.63;3.95;;;;;;;34.87;32.96;100658.23;1729743;82;21826;-41
2021/07/11 10:46:47;;;;;;;27.22;4.37;;;;;;;34.85;32.81;100656.23;1736333;82;21050;-42
2021/07/11 10:49:18;;;;;;;22.15;4.42;;;;;;;35.12;33.23;100656.64;1725705;82;21659;-41
2021/07/11 10:51:47;;;;;;;18.00;4.20;;;;;;;35.42;31.77;100656.61;1728536;82;21513;-41
2021/07/11 10:54:28;;;;;;;27.02;5.12;;;;;;;35.65;30.13;100650.28;1723771;82;21624;-42
2021/07/11 10:56:57;;;;;;;19.87;4.42;;;;;;;35.65;30.76;100644.41;1731541;82;21361;-41
2021/07/11 10:59:31;;;;;;;39.73;5.17;;;;;;;35.59;30.40;100649.70;1704464;82;21059;-42
2021/07/11 11:01:58;;;;;;;16.48;3.87;;;;;;;35.69;31.67;100650.23;1733023;82;21531;-42
2021/07/11 11:04:25;;;;;;;25.57;5.40;;;;;;;36.03;31.64;100650.11;1734305;81;21019;-41
2021/07/11 11:06:53;;;;;;;13.03;3.75;;;;;;;36.26;31.47;100649.08;1731047;82;20951;-41
2021/07/11 11:09:47;;;;;;;11.18;3.60;;;;;;;36.20;30.71;100653.37;1711750;82;21112;-41
2021/07/11 11:12:23;;;;;;;5.83;3.65;;;;;;;36.29;29.23;100651.88;1730210;82;20981;-41
2021/07/11 11:14:58;;;;;;;6.33;3.77;;;;;;;36.44;30.12;100655.83;1728973;82;20982;-43
2021/07/11 11:17:35;;;;;;;11.15;5.47;;;;;;;36.66;31.31;100649.39;1730482;82;21075;-42
2021/07/11 11:20:09;;;;;;;6.78;4.78;;;;;;;36.93;29.52;100653.61;1732198;82;21065;-40
2021/07/11 11:22:35;;;;;;;16.70;3.58;;;;;;;36.92;27.79;100647.08;1731164;82;21117;-40
2021/07/11 11:25:04;;;;;;;26.57;4.50;;;;;;;36.71;27.58;100646.12;1710285;82;20968;-40
2021/07/11 11:27:35;;;;;;;19.55;5.05;;;;;;;36.29;28.15;100644.64;1728488;82;21237;-41
2021/07/11 11:30:17;;;;;;;6.17;3.05;;;;;;;36.15;30.38;100645.54;1730323;82;21083;-41